sensor_id;sensor_type;location;lat;lon;timestamp;P1;durP1;ratioP1;P2;durP2;ratioP2
59876;SDS011;45749;51.140;17.184;2023-03-01T00:00:53;113.32;;;55.13;;
59876;SDS011;45749;51.140;17.184;2023-03-01T00:03:19;99.13;;;56.55;;
59876;SDS011;45749;51.140;17.184;2023-03-01T00:05:44;90.72;;;50.17;;
59876;SDS011;45749;51.140;17.184;2023-03-01T00:08:11;98.20;;;49.70;;
59876;SDS011;45749;51.140;17.184;2023-03-01T00:10:36;98.90;;;50.10;;
59876;SDS011;45749;51.140;17.184;2023-03-01T00:13:02;97.53;;;51.78;;
59876;SDS011;45749;51.140;17.184;2023-03-01T00:15:30;93.72;;;49.72;;
59876;SDS011;45749;51.140;17.184;2023-03-01T00:17:56;97.60;;;51.10;;
59876;SDS011;45749;51.140;17.184;2023-03-01T00:20:22;100.28;;;53.35;;
59876;SDS011;45749;51.140;17.184;2023-03-01T00:22:47;98.15;;;51.22;;
59876;SDS011;45749;51.140;17.184;2023-03-01T00:25:13;96.18;;;50.50;;
59876;SDS011;45749;51.140;17.184;2023-03-01T00:27:38;102.20;;;54.15;;
59876;SDS011;45749;51.140;17.184;2023-03-01T00:30:03;110.47;;;52.17;;
59876;SDS011;45749;51.140;17.184;2023-03-01T00:32:30;107.60;;;58.28;;
59876;SDS011;45749;51.140;17.184;2023-03-01T00:34:55;111.47;;;57.28;;
59876;SDS011;45749;51.140;17.184;2023-03-01T00:37:21;109.40;;;57.25;;
59876;SDS011;45749;51.140;17.184;2023-03-01T00:39:47;108.75;;;55.95;;
59876;SDS011;45749;51.140;17.184;2023-03-01T00:42:13;100.03;;;54.67;;
59876;SDS011;45749;51.140;17.184;2023-03-01T00:44:38;112.57;;;57.60;;
59876;SDS011;45749;51.140;17.184;2023-03-01T00:47:04;108.53;;;56.75;;
59876;SDS011;45749;51.140;17.184;2023-03-01T00:49:29;105.55;;;59.38;;
59876;SDS011;45749;51.140;17.184;2023-03-01T00:51:55;109.78;;;55.95;;
59876;SDS011;45749;51.140;17.184;2023-03-01T00:54:20;110.10;;;56.92;;
59876;SDS011;45749;51.140;17.184;2023-03-01T00:56:45;109.63;;;58.50;;
59876;SDS011;45749;51.140;17.184;2023-03-01T00:59:11;108.22;;;60.35;;
59876;SDS011;45749;51.140;17.184;2023-03-01T01:01:36;109.95;;;56.38;;
59876;SDS011;45749;51.140;17.184;2023-03-01T01:04:03;108.25;;;59.70;;
59876;SDS011;45749;51.140;17.184;2023-03-01T01:09:02;112.85;;;58.92;;
59876;SDS011;45749;51.140;17.184;2023-03-01T01:11:29;114.57;;;56.97;;
59876;SDS011;45749;51.140;17.184;2023-03-01T01:13:56;109.03;;;58.10;;
59876;SDS011;45749;51.140;17.184;2023-03-01T01:16:22;106.10;;;54.83;;
59876;SDS011;45749;51.140;17.184;2023-03-01T01:18:49;105.60;;;57.28;;
59876;SDS011;45749;51.140;17.184;2023-03-01T01:21:16;98.15;;;52.17;;
59876;SDS011;45749;51.140;17.184;2023-03-01T01:23:44;95.38;;;52.83;;
59876;SDS011;45749;51.140;17.184;2023-03-01T01:26:12;90.80;;;50.45;;
59876;SDS011;45749;51.140;17.184;2023-03-01T01:28:42;98.93;;;52.97;;
59876;SDS011;45749;51.140;17.184;2023-03-01T01:31:07;103.78;;;53.88;;
59876;SDS011;45749;51.140;17.184;2023-03-01T01:33:33;96.32;;;52.53;;
59876;SDS011;45749;51.140;17.184;2023-03-01T01:35:59;94.35;;;53.67;;
59876;SDS011;45749;51.140;17.184;2023-03-01T01:38:24;106.45;;;52.10;;
59876;SDS011;45749;51.140;17.184;2023-03-01T01:40:50;107.35;;;54.25;;
59876;SDS011;45749;51.140;17.184;2023-03-01T01:43:29;94.78;;;51.03;;
59876;SDS011;45749;51.140;17.184;2023-03-01T01:48:54;89.55;;;47.38;;
59876;SDS011;45749;51.140;17.184;2023-03-01T01:51:26;93.28;;;48.72;;
59876;SDS011;45749;51.140;17.184;2023-03-01T01:53:55;87.75;;;48.55;;
59876;SDS011;45749;51.140;17.184;2023-03-01T01:56:26;86.60;;;48.65;;
59876;SDS011;45749;51.140;17.184;2023-03-01T01:58:53;87.47;;;48.00;;
59876;SDS011;45749;51.140;17.184;2023-03-01T02:01:20;87.38;;;47.15;;
59876;SDS011;45749;51.140;17.184;2023-03-01T02:03:46;93.68;;;49.65;;
59876;SDS011;45749;51.140;17.184;2023-03-01T02:09:00;85.97;;;45.85;;
59876;SDS011;45749;51.140;17.184;2023-03-01T02:11:30;89.65;;;49.60;;
59876;SDS011;45749;51.140;17.184;2023-03-01T02:13:56;88.00;;;51.22;;
59876;SDS011;45749;51.140;17.184;2023-03-01T02:16:22;80.30;;;45.17;;
59876;SDS011;45749;51.140;17.184;2023-03-01T02:18:47;88.10;;;47.20;;
59876;SDS011;45749;51.140;17.184;2023-03-01T02:21:34;98.40;;;48.25;;
59876;SDS011;45749;51.140;17.184;2023-03-01T02:24:15;93.20;;;46.92;;
59876;SDS011;45749;51.140;17.184;2023-03-01T02:27:04;96.00;;;46.83;;
59876;SDS011;45749;51.140;17.184;2023-03-01T02:29:30;80.10;;;48.00;;
59876;SDS011;45749;51.140;17.184;2023-03-01T02:31:56;91.20;;;45.78;;
59876;SDS011;45749;51.140;17.184;2023-03-01T02:34:24;87.72;;;46.92;;
59876;SDS011;45749;51.140;17.184;2023-03-01T02:37:01;91.22;;;47.72;;
59876;SDS011;45749;51.140;17.184;2023-03-01T02:39:39;81.05;;;43.53;;
59876;SDS011;45749;51.140;17.184;2023-03-01T02:42:13;91.40;;;47.47;;
59876;SDS011;45749;51.140;17.184;2023-03-01T02:44:45;74.95;;;43.15;;
59876;SDS011;45749;51.140;17.184;2023-03-01T02:47:10;83.78;;;46.13;;
59876;SDS011;45749;51.140;17.184;2023-03-01T02:49:36;81.85;;;44.15;;
59876;SDS011;45749;51.140;17.184;2023-03-01T02:52:21;88.75;;;45.75;;
59876;SDS011;45749;51.140;17.184;2023-03-01T02:57:36;92.47;;;46.13;;
59876;SDS011;45749;51.140;17.184;2023-03-01T03:00:09;85.97;;;43.55;;
59876;SDS011;45749;51.140;17.184;2023-03-01T03:02:44;82.75;;;46.38;;
59876;SDS011;45749;51.140;17.184;2023-03-01T03:05:12;81.13;;;43.90;;
59876;SDS011;45749;51.140;17.184;2023-03-01T03:07:46;82.40;;;44.47;;
59876;SDS011;45749;51.140;17.184;2023-03-01T03:10:21;79.97;;;45.35;;
59876;SDS011;45749;51.140;17.184;2023-03-01T03:12:52;83.80;;;42.70;;
59876;SDS011;45749;51.140;17.184;2023-03-01T03:15:19;91.10;;;45.35;;
59876;SDS011;45749;51.140;17.184;2023-03-01T03:17:46;78.95;;;41.97;;
59876;SDS011;45749;51.140;17.184;2023-03-01T03:20:12;79.15;;;42.03;;
59876;SDS011;45749;51.140;17.184;2023-03-01T03:22:44;84.70;;;45.67;;
59876;SDS011;45749;51.140;17.184;2023-03-01T03:25:11;92.40;;;51.25;;
59876;SDS011;45749;51.140;17.184;2023-03-01T03:27:37;77.15;;;43.38;;
59876;SDS011;45749;51.140;17.184;2023-03-01T03:30:05;98.10;;;51.22;;
59876;SDS011;45749;51.140;17.184;2023-03-01T03:32:35;87.53;;;46.75;;
59876;SDS011;45749;51.140;17.184;2023-03-01T03:35:02;94.93;;;50.85;;
59876;SDS011;45749;51.140;17.184;2023-03-01T03:37:34;95.72;;;52.47;;
59876;SDS011;45749;51.140;17.184;2023-03-01T03:40:21;95.82;;;53.42;;
59876;SDS011;45749;51.140;17.184;2023-03-01T03:42:46;96.65;;;47.83;;
59876;SDS011;45749;51.140;17.184;2023-03-01T03:45:13;86.05;;;46.72;;
59876;SDS011;45749;51.140;17.184;2023-03-01T03:47:38;85.22;;;46.65;;
59876;SDS011;45749;51.140;17.184;2023-03-01T03:50:04;84.78;;;47.30;;
59876;SDS011;45749;51.140;17.184;2023-03-01T03:52:29;81.40;;;42.97;;
59876;SDS011;45749;51.140;17.184;2023-03-01T03:54:55;90.13;;;47.45;;
59876;SDS011;45749;51.140;17.184;2023-03-01T03:57:20;89.47;;;46.85;;
59876;SDS011;45749;51.140;17.184;2023-03-01T03:59:46;84.00;;;44.20;;
59876;SDS011;45749;51.140;17.184;2023-03-01T04:02:11;79.80;;;43.40;;
59876;SDS011;45749;51.140;17.184;2023-03-01T04:04:36;77.10;;;42.85;;
59876;SDS011;45749;51.140;17.184;2023-03-01T04:07:02;85.75;;;42.50;;
59876;SDS011;45749;51.140;17.184;2023-03-01T04:09:27;82.50;;;45.40;;
59876;SDS011;45749;51.140;17.184;2023-03-01T04:11:55;80.47;;;46.00;;
59876;SDS011;45749;51.140;17.184;2023-03-01T04:14:20;92.20;;;45.70;;
59876;SDS011;45749;51.140;17.184;2023-03-01T04:16:46;82.43;;;44.88;;
59876;SDS011;45749;51.140;17.184;2023-03-01T04:19:12;75.13;;;44.47;;
59876;SDS011;45749;51.140;17.184;2023-03-01T04:21:37;89.35;;;46.00;;
59876;SDS011;45749;51.140;17.184;2023-03-01T04:24:03;84.40;;;45.35;;
59876;SDS011;45749;51.140;17.184;2023-03-01T04:26:29;80.93;;;44.17;;
59876;SDS011;45749;51.140;17.184;2023-03-01T04:28:54;77.68;;;43.08;;
59876;SDS011;45749;51.140;17.184;2023-03-01T04:31:20;86.97;;;45.55;;
59876;SDS011;45749;51.140;17.184;2023-03-01T04:33:49;76.30;;;44.40;;
59876;SDS011;45749;51.140;17.184;2023-03-01T04:36:17;85.63;;;43.92;;
59876;SDS011;45749;51.140;17.184;2023-03-01T04:38:43;99.15;;;51.85;;
59876;SDS011;45749;51.140;17.184;2023-03-01T04:41:13;110.00;;;56.47;;
59876;SDS011;45749;51.140;17.184;2023-03-01T04:43:40;113.13;;;56.58;;
59876;SDS011;45749;51.140;17.184;2023-03-01T04:46:06;108.43;;;55.72;;
59876;SDS011;45749;51.140;17.184;2023-03-01T04:48:37;102.22;;;51.75;;
59876;SDS011;45749;51.140;17.184;2023-03-01T04:51:05;103.78;;;51.75;;
59876;SDS011;45749;51.140;17.184;2023-03-01T04:53:31;96.88;;;53.08;;
59876;SDS011;45749;51.140;17.184;2023-03-01T04:55:58;95.00;;;52.83;;
59876;SDS011;45749;51.140;17.184;2023-03-01T04:58:25;102.00;;;51.95;;
59876;SDS011;45749;51.140;17.184;2023-03-01T05:00:52;98.60;;;52.78;;
59876;SDS011;45749;51.140;17.184;2023-03-01T05:03:18;102.82;;;50.22;;
59876;SDS011;45749;51.140;17.184;2023-03-01T05:05:44;103.65;;;51.42;;
59876;SDS011;45749;51.140;17.184;2023-03-01T05:08:11;84.78;;;45.42;;
59876;SDS011;45749;51.140;17.184;2023-03-01T05:10:42;95.15;;;49.45;;
59876;SDS011;45749;51.140;17.184;2023-03-01T05:13:11;91.72;;;50.70;;
59876;SDS011;45749;51.140;17.184;2023-03-01T05:15:38;92.90;;;46.78;;
59876;SDS011;45749;51.140;17.184;2023-03-01T05:18:04;87.40;;;44.65;;
59876;SDS011;45749;51.140;17.184;2023-03-01T05:20:36;89.40;;;45.40;;
59876;SDS011;45749;51.140;17.184;2023-03-01T05:23:02;88.28;;;45.08;;
59876;SDS011;45749;51.140;17.184;2023-03-01T05:25:30;95.68;;;45.65;;
59876;SDS011;45749;51.140;17.184;2023-03-01T05:27:58;81.85;;;45.40;;
59876;SDS011;45749;51.140;17.184;2023-03-01T05:30:24;103.72;;;47.88;;
59876;SDS011;45749;51.140;17.184;2023-03-01T05:32:50;84.47;;;47.65;;
59876;SDS011;45749;51.140;17.184;2023-03-01T05:35:21;87.18;;;44.97;;
59876;SDS011;45749;51.140;17.184;2023-03-01T05:37:48;87.78;;;46.33;;
59876;SDS011;45749;51.140;17.184;2023-03-01T05:40:15;82.25;;;43.65;;
59876;SDS011;45749;51.140;17.184;2023-03-01T05:42:46;86.95;;;43.97;;
59876;SDS011;45749;51.140;17.184;2023-03-01T05:45:14;83.97;;;45.30;;
59876;SDS011;45749;51.140;17.184;2023-03-01T05:47:41;81.90;;;44.65;;
59876;SDS011;45749;51.140;17.184;2023-03-01T05:50:10;88.57;;;45.85;;
59876;SDS011;45749;51.140;17.184;2023-03-01T05:52:35;83.03;;;41.63;;
59876;SDS011;45749;51.140;17.184;2023-03-01T05:55:01;86.40;;;42.50;;
59876;SDS011;45749;51.140;17.184;2023-03-01T05:57:28;82.80;;;44.00;;
59876;SDS011;45749;51.140;17.184;2023-03-01T05:59:53;73.90;;;43.95;;
59876;SDS011;45749;51.140;17.184;2023-03-01T06:02:19;85.82;;;44.25;;
59876;SDS011;45749;51.140;17.184;2023-03-01T06:04:44;85.50;;;44.00;;
59876;SDS011;45749;51.140;17.184;2023-03-01T06:07:10;83.22;;;44.63;;
59876;SDS011;45749;51.140;17.184;2023-03-01T06:09:36;87.95;;;44.15;;
59876;SDS011;45749;51.140;17.184;2023-03-01T06:12:01;76.40;;;41.55;;
59876;SDS011;45749;51.140;17.184;2023-03-01T06:14:26;80.35;;;41.50;;
59876;SDS011;45749;51.140;17.184;2023-03-01T06:16:52;82.63;;;42.88;;
59876;SDS011;45749;51.140;17.184;2023-03-01T06:19:17;78.82;;;42.40;;
59876;SDS011;45749;51.140;17.184;2023-03-01T06:21:43;90.32;;;46.35;;
59876;SDS011;45749;51.140;17.184;2023-03-01T06:24:08;93.13;;;43.58;;
59876;SDS011;45749;51.140;17.184;2023-03-01T06:26:34;102.57;;;48.13;;
59876;SDS011;45749;51.140;17.184;2023-03-01T06:28:59;92.00;;;46.60;;
59876;SDS011;45749;51.140;17.184;2023-03-01T06:31:24;92.38;;;43.63;;
59876;SDS011;45749;51.140;17.184;2023-03-01T06:33:50;96.40;;;49.25;;
59876;SDS011;45749;51.140;17.184;2023-03-01T06:36:15;113.00;;;53.97;;
59876;SDS011;45749;51.140;17.184;2023-03-01T06:38:44;106.47;;;51.63;;
59876;SDS011;45749;51.140;17.184;2023-03-01T06:41:09;100.82;;;57.92;;
59876;SDS011;45749;51.140;17.184;2023-03-01T06:43:35;109.35;;;52.95;;
59876;SDS011;45749;51.140;17.184;2023-03-01T06:46:03;82.85;;;45.85;;
59876;SDS011;45749;51.140;17.184;2023-03-01T06:48:29;84.38;;;46.25;;
59876;SDS011;45749;51.140;17.184;2023-03-01T06:50:57;81.57;;;44.75;;
59876;SDS011;45749;51.140;17.184;2023-03-01T06:53:23;78.88;;;44.88;;
59876;SDS011;45749;51.140;17.184;2023-03-01T06:55:53;82.60;;;46.72;;
59876;SDS011;45749;51.140;17.184;2023-03-01T06:58:19;79.80;;;44.08;;
59876;SDS011;45749;51.140;17.184;2023-03-01T07:00:45;77.40;;;41.33;;
59876;SDS011;45749;51.140;17.184;2023-03-01T07:03:10;79.78;;;45.33;;
59876;SDS011;45749;51.140;17.184;2023-03-01T07:05:36;88.60;;;48.65;;
59876;SDS011;45749;51.140;17.184;2023-03-01T07:08:01;93.15;;;50.58;;
59876;SDS011;45749;51.140;17.184;2023-03-01T07:10:26;101.45;;;55.15;;
59876;SDS011;45749;51.140;17.184;2023-03-01T07:12:58;91.15;;;51.88;;
59876;SDS011;45749;51.140;17.184;2023-03-01T07:15:24;105.00;;;57.88;;
59876;SDS011;45749;51.140;17.184;2023-03-01T07:17:50;124.68;;;62.35;;
59876;SDS011;45749;51.140;17.184;2023-03-01T07:20:16;135.85;;;71.45;;
59876;SDS011;45749;51.140;17.184;2023-03-01T07:22:43;120.07;;;64.20;;
59876;SDS011;45749;51.140;17.184;2023-03-01T07:25:09;106.63;;;57.53;;
59876;SDS011;45749;51.140;17.184;2023-03-01T07:27:35;107.85;;;53.75;;
59876;SDS011;45749;51.140;17.184;2023-03-01T07:30:01;91.93;;;49.33;;
59876;SDS011;45749;51.140;17.184;2023-03-01T07:32:27;89.65;;;49.05;;
59876;SDS011;45749;51.140;17.184;2023-03-01T07:34:53;75.35;;;41.72;;
59876;SDS011;45749;51.140;17.184;2023-03-01T07:37:18;80.05;;;43.30;;
59876;SDS011;45749;51.140;17.184;2023-03-01T07:39:43;80.40;;;42.25;;
59876;SDS011;45749;51.140;17.184;2023-03-01T07:42:09;82.63;;;42.75;;
59876;SDS011;45749;51.140;17.184;2023-03-01T07:44:34;84.65;;;47.05;;
59876;SDS011;45749;51.140;17.184;2023-03-01T07:47:00;78.18;;;41.70;;
59876;SDS011;45749;51.140;17.184;2023-03-01T07:49:25;75.13;;;39.47;;
59876;SDS011;45749;51.140;17.184;2023-03-01T07:51:53;79.50;;;43.85;;
59876;SDS011;45749;51.140;17.184;2023-03-01T07:54:19;69.50;;;40.35;;
59876;SDS011;45749;51.140;17.184;2023-03-01T07:56:44;75.75;;;41.55;;
59876;SDS011;45749;51.140;17.184;2023-03-01T07:59:10;71.78;;;38.67;;
59876;SDS011;45749;51.140;17.184;2023-03-01T08:01:35;63.47;;;36.45;;
59876;SDS011;45749;51.140;17.184;2023-03-01T08:04:01;76.47;;;44.53;;
59876;SDS011;45749;51.140;17.184;2023-03-01T08:06:26;76.53;;;43.70;;
59876;SDS011;45749;51.140;17.184;2023-03-01T08:08:52;70.72;;;38.70;;
59876;SDS011;45749;51.140;17.184;2023-03-01T08:11:20;71.00;;;33.72;;
59876;SDS011;45749;51.140;17.184;2023-03-01T08:13:47;79.30;;;42.33;;
59876;SDS011;45749;51.140;17.184;2023-03-01T08:16:14;73.70;;;39.85;;
59876;SDS011;45749;51.140;17.184;2023-03-01T08:18:40;68.93;;;33.92;;
59876;SDS011;45749;51.140;17.184;2023-03-01T08:21:07;76.57;;;36.75;;
59876;SDS011;45749;51.140;17.184;2023-03-01T08:23:35;72.28;;;38.30;;
59876;SDS011;45749;51.140;17.184;2023-03-01T08:26:04;73.35;;;42.90;;
59876;SDS011;45749;51.140;17.184;2023-03-01T08:28:31;92.05;;;46.47;;
59876;SDS011;45749;51.140;17.184;2023-03-01T08:30:57;83.35;;;46.35;;
59876;SDS011;45749;51.140;17.184;2023-03-01T08:33:23;82.55;;;43.53;;
59876;SDS011;45749;51.140;17.184;2023-03-01T08:35:48;77.82;;;42.22;;
59876;SDS011;45749;51.140;17.184;2023-03-01T08:38:14;79.43;;;40.50;;
59876;SDS011;45749;51.140;17.184;2023-03-01T08:40:39;75.53;;;40.67;;
59876;SDS011;45749;51.140;17.184;2023-03-01T08:43:04;68.95;;;39.55;;
59876;SDS011;45749;51.140;17.184;2023-03-01T08:45:30;75.38;;;40.42;;
59876;SDS011;45749;51.140;17.184;2023-03-01T08:47:55;64.00;;;36.53;;
59876;SDS011;45749;51.140;17.184;2023-03-01T08:50:20;72.05;;;37.65;;
59876;SDS011;45749;51.140;17.184;2023-03-01T08:52:47;61.92;;;34.78;;
59876;SDS011;45749;51.140;17.184;2023-03-01T08:55:13;58.03;;;31.25;;
59876;SDS011;45749;51.140;17.184;2023-03-01T08:57:39;53.45;;;30.73;;
59876;SDS011;45749;51.140;17.184;2023-03-01T09:00:05;56.97;;;33.35;;
59876;SDS011;45749;51.140;17.184;2023-03-01T09:02:33;39.88;;;23.27;;
59876;SDS011;45749;51.140;17.184;2023-03-01T09:04:59;41.58;;;23.52;;
59876;SDS011;45749;51.140;17.184;2023-03-01T09:07:25;40.95;;;25.23;;
59876;SDS011;45749;51.140;17.184;2023-03-01T09:09:53;41.42;;;21.13;;
59876;SDS011;45749;51.140;17.184;2023-03-01T09:12:20;33.97;;;20.50;;
59876;SDS011;45749;51.140;17.184;2023-03-01T09:14:45;31.58;;;17.77;;
59876;SDS011;45749;51.140;17.184;2023-03-01T09:17:11;26.60;;;17.10;;
59876;SDS011;45749;51.140;17.184;2023-03-01T09:19:36;61.42;;;31.83;;
59876;SDS011;45749;51.140;17.184;2023-03-01T09:22:02;41.92;;;22.98;;
59876;SDS011;45749;51.140;17.184;2023-03-01T09:24:28;30.67;;;17.45;;
59876;SDS011;45749;51.140;17.184;2023-03-01T09:26:54;27.88;;;18.15;;
59876;SDS011;45749;51.140;17.184;2023-03-01T09:29:20;33.60;;;19.58;;
59876;SDS011;45749;51.140;17.184;2023-03-01T09:31:47;34.35;;;19.15;;
59876;SDS011;45749;51.140;17.184;2023-03-01T09:34:12;30.85;;;18.83;;
59876;SDS011;45749;51.140;17.184;2023-03-01T09:36:41;31.52;;;18.60;;
59876;SDS011;45749;51.140;17.184;2023-03-01T09:39:06;31.65;;;18.88;;
59876;SDS011;45749;51.140;17.184;2023-03-01T09:44:42;34.83;;;19.65;;
59876;SDS011;45749;51.140;17.184;2023-03-01T09:47:32;35.40;;;20.27;;
59876;SDS011;45749;51.140;17.184;2023-03-01T09:50:02;34.25;;;20.05;;
59876;SDS011;45749;51.140;17.184;2023-03-01T09:54:58;27.92;;;18.05;;
59876;SDS011;45749;51.140;17.184;2023-03-01T10:11:33;28.83;;;17.27;;
59876;SDS011;45749;51.140;17.184;2023-03-01T10:14:19;27.77;;;16.42;;
59876;SDS011;45749;51.140;17.184;2023-03-01T10:19:30;24.00;;;15.95;;
59876;SDS011;45749;51.140;17.184;2023-03-01T10:24:48;27.95;;;18.85;;
59876;SDS011;45749;51.140;17.184;2023-03-01T10:32:45;25.60;;;17.83;;
59876;SDS011;45749;51.140;17.184;2023-03-01T10:35:24;22.27;;;14.88;;
59876;SDS011;45749;51.140;17.184;2023-03-01T10:38:12;20.08;;;12.20;;
59876;SDS011;45749;51.140;17.184;2023-03-01T10:40:51;17.48;;;11.27;;
59876;SDS011;45749;51.140;17.184;2023-03-01T10:43:23;15.02;;;9.63;;
59876;SDS011;45749;51.140;17.184;2023-03-01T10:45:57;18.70;;;10.55;;
59876;SDS011;45749;51.140;17.184;2023-03-01T10:48:25;16.40;;;11.35;;
59876;SDS011;45749;51.140;17.184;2023-03-01T10:56:16;19.88;;;12.25;;
59876;SDS011;45749;51.140;17.184;2023-03-01T10:58:58;20.70;;;12.43;;
59876;SDS011;45749;51.140;17.184;2023-03-01T11:01:26;24.98;;;14.55;;
59876;SDS011;45749;51.140;17.184;2023-03-01T11:06:32;25.75;;;17.10;;
59876;SDS011;45749;51.140;17.184;2023-03-01T11:09:14;32.03;;;20.80;;
59876;SDS011;45749;51.140;17.184;2023-03-01T11:11:43;31.85;;;18.13;;
59876;SDS011;45749;51.140;17.184;2023-03-01T11:14:14;29.13;;;17.83;;
59876;SDS011;45749;51.140;17.184;2023-03-01T11:16:44;27.25;;;18.30;;
59876;SDS011;45749;51.140;17.184;2023-03-01T11:21:55;41.38;;;30.33;;
59876;SDS011;45749;51.140;17.184;2023-03-01T11:24:36;35.53;;;24.20;;
59876;SDS011;45749;51.140;17.184;2023-03-01T11:27:08;30.33;;;18.27;;
59876;SDS011;45749;51.140;17.184;2023-03-01T11:29:40;29.73;;;19.17;;
59876;SDS011;45749;51.140;17.184;2023-03-01T11:32:08;35.40;;;22.25;;
59876;SDS011;45749;51.140;17.184;2023-03-01T11:34:42;29.60;;;19.27;;
59876;SDS011;45749;51.140;17.184;2023-03-01T11:37:26;24.77;;;17.45;;
59876;SDS011;45749;51.140;17.184;2023-03-01T11:40:21;25.20;;;16.95;;
59876;SDS011;45749;51.140;17.184;2023-03-01T11:42:53;24.45;;;17.98;;
59876;SDS011;45749;51.140;17.184;2023-03-01T11:45:28;21.38;;;15.57;;
59876;SDS011;45749;51.140;17.184;2023-03-01T11:51:17;26.42;;;16.70;;
59876;SDS011;45749;51.140;17.184;2023-03-01T11:56:55;20.20;;;13.98;;
59876;SDS011;45749;51.140;17.184;2023-03-01T11:59:43;22.58;;;13.50;;
59876;SDS011;45749;51.140;17.184;2023-03-01T12:08:04;21.40;;;14.77;;
59876;SDS011;45749;51.140;17.184;2023-03-01T12:35:09;19.77;;;11.65;;
59876;SDS011;45749;51.140;17.184;2023-03-01T12:49:07;60.55;;;26.77;;
59876;SDS011;45749;51.140;17.184;2023-03-01T12:51:38;22.90;;;13.95;;
59876;SDS011;45749;51.140;17.184;2023-03-01T12:54:14;25.95;;;15.27;;
59876;SDS011;45749;51.140;17.184;2023-03-01T12:56:41;39.47;;;22.30;;
59876;SDS011;45749;51.140;17.184;2023-03-01T12:59:23;82.80;;;37.70;;
59876;SDS011;45749;51.140;17.184;2023-03-01T13:02:05;36.50;;;21.90;;
59876;SDS011;45749;51.140;17.184;2023-03-01T13:10:04;21.33;;;13.85;;
59876;SDS011;45749;51.140;17.184;2023-03-01T13:17:47;21.15;;;14.88;;
59876;SDS011;45749;51.140;17.184;2023-03-01T13:30:57;23.35;;;14.20;;
59876;SDS011;45749;51.140;17.184;2023-03-01T13:35:52;18.40;;;13.65;;
59876;SDS011;45749;51.140;17.184;2023-03-01T13:41:13;20.05;;;14.13;;
59876;SDS011;45749;51.140;17.184;2023-03-01T13:43:41;21.70;;;13.63;;
59876;SDS011;45749;51.140;17.184;2023-03-01T13:46:16;23.15;;;14.07;;
59876;SDS011;45749;51.140;17.184;2023-03-01T13:48:45;20.85;;;14.82;;
59876;SDS011;45749;51.140;17.184;2023-03-01T13:51:15;21.35;;;13.80;;
59876;SDS011;45749;51.140;17.184;2023-03-01T13:53:42;21.02;;;14.63;;
59876;SDS011;45749;51.140;17.184;2023-03-01T14:01:42;22.98;;;15.18;;
59876;SDS011;45749;51.140;17.184;2023-03-01T14:04:21;20.42;;;12.65;;
59876;SDS011;45749;51.140;17.184;2023-03-01T14:07:16;20.98;;;13.32;;
59876;SDS011;45749;51.140;17.184;2023-03-01T14:09:44;20.20;;;14.23;;
59876;SDS011;45749;51.140;17.184;2023-03-01T14:17:42;19.63;;;12.77;;
59876;SDS011;45749;51.140;17.184;2023-03-01T14:20:11;20.40;;;14.85;;
59876;SDS011;45749;51.140;17.184;2023-03-01T14:22:42;19.15;;;13.27;;
59876;SDS011;45749;51.140;17.184;2023-03-01T14:31:05;17.58;;;12.00;;
59876;SDS011;45749;51.140;17.184;2023-03-01T14:33:57;19.02;;;12.30;;
59876;SDS011;45749;51.140;17.184;2023-03-01T14:36:27;20.40;;;13.85;;
59876;SDS011;45749;51.140;17.184;2023-03-01T14:38:54;19.13;;;12.00;;
59876;SDS011;45749;51.140;17.184;2023-03-01T14:43:50;23.20;;;15.35;;
59876;SDS011;45749;51.140;17.184;2023-03-01T14:46:37;19.95;;;13.40;;
59876;SDS011;45749;51.140;17.184;2023-03-01T14:49:12;25.65;;;14.57;;
59876;SDS011;45749;51.140;17.184;2023-03-01T14:51:47;21.08;;;14.35;;
59876;SDS011;45749;51.140;17.184;2023-03-01T14:54:25;21.23;;;13.02;;
59876;SDS011;45749;51.140;17.184;2023-03-01T14:57:19;20.92;;;13.45;;
59876;SDS011;45749;51.140;17.184;2023-03-01T14:59:49;19.30;;;14.13;;
59876;SDS011;45749;51.140;17.184;2023-03-01T15:02:23;20.95;;;13.77;;
59876;SDS011;45749;51.140;17.184;2023-03-01T15:04:51;21.70;;;13.65;;
59876;SDS011;45749;51.140;17.184;2023-03-01T15:07:21;21.92;;;13.30;;
59876;SDS011;45749;51.140;17.184;2023-03-01T15:09:51;22.33;;;13.93;;
59876;SDS011;45749;51.140;17.184;2023-03-01T15:14:51;18.98;;;12.45;;
59876;SDS011;45749;51.140;17.184;2023-03-01T15:19:55;19.60;;;13.38;;
59876;SDS011;45749;51.140;17.184;2023-03-01T15:22:21;20.63;;;14.18;;
59876;SDS011;45749;51.140;17.184;2023-03-01T15:24:48;18.35;;;12.85;;
59876;SDS011;45749;51.140;17.184;2023-03-01T15:27:18;22.38;;;13.75;;
59876;SDS011;45749;51.140;17.184;2023-03-01T15:29:50;18.42;;;14.13;;
59876;SDS011;45749;51.140;17.184;2023-03-01T15:32:34;18.50;;;12.80;;
59876;SDS011;45749;51.140;17.184;2023-03-01T15:38:00;20.75;;;14.05;;
59876;SDS011;45749;51.140;17.184;2023-03-01T15:40:26;17.50;;;12.93;;
59876;SDS011;45749;51.140;17.184;2023-03-01T15:42:57;20.60;;;13.43;;
59876;SDS011;45749;51.140;17.184;2023-03-01T15:45:25;23.02;;;13.18;;
59876;SDS011;45749;51.140;17.184;2023-03-01T15:48:13;21.17;;;13.88;;
59876;SDS011;45749;51.140;17.184;2023-03-01T15:50:42;22.15;;;14.02;;
59876;SDS011;45749;51.140;17.184;2023-03-01T15:53:13;21.70;;;14.40;;
59876;SDS011;45749;51.140;17.184;2023-03-01T15:55:40;21.65;;;15.38;;
59876;SDS011;45749;51.140;17.184;2023-03-01T15:58:10;23.15;;;15.18;;
59876;SDS011;45749;51.140;17.184;2023-03-01T16:00:38;23.38;;;16.20;;
59876;SDS011;45749;51.140;17.184;2023-03-01T16:03:04;24.58;;;16.90;;
59876;SDS011;45749;51.140;17.184;2023-03-01T16:05:31;26.20;;;16.60;;
59876;SDS011;45749;51.140;17.184;2023-03-01T16:08:02;24.33;;;19.17;;
59876;SDS011;45749;51.140;17.184;2023-03-01T16:10:28;24.40;;;18.58;;
59876;SDS011;45749;51.140;17.184;2023-03-01T16:12:55;17.23;;;12.73;;
59876;SDS011;45749;51.140;17.184;2023-03-01T16:15:24;23.55;;;14.35;;
59876;SDS011;45749;51.140;17.184;2023-03-01T16:17:59;19.63;;;12.50;;
59876;SDS011;45749;51.140;17.184;2023-03-01T16:20:25;73.40;;;37.03;;
59876;SDS011;45749;51.140;17.184;2023-03-01T16:22:51;30.80;;;19.13;;
59876;SDS011;45749;51.140;17.184;2023-03-01T16:25:17;45.60;;;24.63;;
59876;SDS011;45749;51.140;17.184;2023-03-01T16:27:45;67.28;;;35.88;;
59876;SDS011;45749;51.140;17.184;2023-03-01T16:30:13;95.50;;;48.38;;
59876;SDS011;45749;51.140;17.184;2023-03-01T16:32:40;75.53;;;39.42;;
59876;SDS011;45749;51.140;17.184;2023-03-01T16:35:08;64.90;;;38.33;;
59876;SDS011;45749;51.140;17.184;2023-03-01T16:37:35;63.70;;;35.83;;
59876;SDS011;45749;51.140;17.184;2023-03-01T16:40:01;54.75;;;28.15;;
59876;SDS011;45749;51.140;17.184;2023-03-01T16:42:32;45.35;;;23.98;;
59876;SDS011;45749;51.140;17.184;2023-03-01T16:45:01;35.00;;;21.08;;
59876;SDS011;45749;51.140;17.184;2023-03-01T16:47:27;32.05;;;20.08;;
59876;SDS011;45749;51.140;17.184;2023-03-01T16:49:53;29.30;;;20.52;;